createdAt,value
2023-05-12T00:00:49.938Z,1.40
2023-05-12T00:01:49.937Z,1.40
2023-05-12T00:02:50.083Z,1.50
2023-05-12T00:03:50.109Z,1.30
2023-05-12T00:04:50.037Z,1.40
2023-05-12T00:05:49.993Z,1.40
2023-05-12T00:06:50.003Z,1.40
2023-05-12T00:07:50.122Z,1.30
2023-05-12T00:08:50.040Z,1.60
2023-05-12T00:09:50.046Z,1.40
2023-05-12T00:10:50.068Z,1.40
2023-05-12T00:11:50.071Z,1.40
2023-05-12T00:12:50.087Z,1.40
2023-05-12T00:13:50.264Z,1.70
2023-05-12T00:14:50.115Z,1.40
2023-05-12T00:15:50.131Z,1.50
2023-05-12T00:16:50.219Z,1.40
2023-05-12T00:17:50.241Z,1.50
2023-05-12T00:18:51.120Z,1.30
2023-05-12T00:19:50.197Z,1.40
2023-05-12T00:20:50.206Z,1.40
2023-05-12T00:21:50.221Z,1.50
2023-05-12T00:22:50.233Z,1.40
2023-05-12T00:23:50.348Z,1.40
2023-05-12T00:24:50.282Z,1.50
2023-05-12T00:25:50.428Z,1.50
2023-05-12T00:26:50.303Z,1.50
2023-05-12T00:27:50.298Z,1.50
2023-05-12T00:28:50.325Z,1.50
2023-05-12T00:29:50.446Z,1.60
2023-05-12T00:30:50.346Z,1.50
2023-05-12T00:31:50.384Z,1.60
2023-05-12T00:32:50.433Z,1.50
2023-05-12T00:33:50.396Z,1.70
2023-05-12T00:34:50.404Z,1.40
2023-05-12T00:35:50.670Z,1.50
2023-05-12T00:36:50.441Z,1.40
2023-05-12T00:37:50.455Z,1.50
2023-05-12T00:38:50.469Z,1.40
2023-05-12T00:39:50.477Z,1.50
2023-05-12T00:40:50.492Z,1.50
2023-05-12T00:41:50.608Z,1.50
2023-05-12T00:42:50.530Z,1.50
2023-05-12T00:43:50.543Z,1.40
2023-05-12T00:44:50.550Z,1.50
2023-05-12T00:45:50.610Z,1.40
2023-05-12T00:46:50.585Z,1.50
2023-05-12T00:47:50.746Z,1.40
2023-05-12T00:48:50.621Z,1.30
2023-05-12T00:49:50.629Z,1.40
2023-05-12T00:50:50.637Z,1.40
2023-05-12T00:51:50.656Z,1.40
2023-05-12T00:52:50.693Z,1.60
2023-05-12T00:53:50.902Z,1.50
2023-05-12T00:54:50.701Z,1.50
2023-05-12T00:55:50.723Z,1.40
2023-05-12T00:56:50.735Z,1.50
2023-05-12T00:57:50.735Z,1.50
2023-05-12T00:58:50.751Z,1.60
2023-05-12T00:59:50.880Z,1.50
2023-05-12T01:00:50.807Z,1.60
2023-05-12T01:01:50.793Z,1.50
2023-05-12T01:02:50.962Z,1.40
2023-05-12T01:03:50.821Z,1.60
2023-05-12T01:04:50.873Z,1.40
2023-05-12T01:05:50.960Z,1.40
2023-05-12T01:06:50.868Z,1.50
2023-05-12T01:07:50.881Z,1.50
2023-05-12T01:08:50.892Z,1.50
2023-05-12T01:09:50.909Z,1.50
2023-05-12T01:10:50.937Z,1.60
2023-05-12T01:11:51.044Z,1.40
2023-05-12T01:12:50.952Z,1.40
2023-05-12T01:13:50.981Z,1.50
2023-05-12T01:14:50.990Z,1.60
2023-05-12T01:15:50.995Z,1.50
2023-05-12T01:16:51.040Z,1.40
2023-05-12T01:17:51.285Z,1.50
2023-05-12T01:18:51.146Z,1.50
2023-05-12T01:19:51.060Z,1.20
2023-05-12T01:20:51.209Z,1.40
2023-05-12T01:21:51.078Z,1.40
2023-05-12T01:22:51.195Z,1.60
2023-05-12T01:23:51.117Z,1.40
2023-05-12T01:24:51.134Z,1.30
2023-05-12T01:25:51.137Z,1.60
2023-05-12T01:26:51.152Z,1.50
2023-05-12T01:27:51.266Z,1.60
2023-05-12T01:28:51.189Z,1.30
2023-05-12T01:29:51.210Z,1.40
2023-05-12T01:30:51.237Z,1.50
2023-05-12T01:31:51.434Z,1.60
2023-05-12T01:32:51.267Z,1.50
2023-05-12T01:33:51.353Z,1.50
2023-05-12T01:34:51.271Z,1.60
2023-05-12T01:35:51.281Z,1.30
2023-05-12T01:36:51.330Z,1.40
2023-05-12T01:37:51.308Z,1.60
2023-05-12T01:38:51.339Z,1.60
2023-05-12T01:39:51.435Z,1.50
2023-05-12T01:40:51.359Z,1.50
2023-05-12T01:41:51.365Z,1.50
2023-05-12T01:42:51.381Z,1.40
2023-05-12T01:43:51.396Z,1.40
2023-05-12T01:44:51.513Z,1.50
2023-05-12T01:45:51.423Z,1.50
2023-05-12T01:46:51.593Z,1.60
2023-05-12T01:47:51.519Z,1.30
2023-05-12T01:48:51.468Z,1.60
2023-05-12T01:49:51.575Z,1.50
2023-05-12T01:50:51.493Z,1.50
2023-05-12T01:51:51.508Z,1.40
2023-05-12T01:52:51.538Z,1.50
2023-05-12T01:53:51.532Z,1.60
2023-05-12T01:54:51.564Z,1.60
2023-05-12T01:55:51.660Z,1.50
2023-05-12T01:56:51.583Z,1.50
2023-05-12T01:57:51.622Z,1.50
2023-05-12T01:58:51.652Z,1.40
2023-05-12T01:59:51.632Z,1.60
2023-05-12T02:00:51.631Z,1.50
2023-05-12T02:01:51.868Z,1.70
2023-05-12T02:02:51.729Z,1.60
2023-05-12T02:03:51.858Z,1.40
2023-05-12T02:04:51.687Z,1.60
2023-05-12T02:05:51.710Z,1.50
2023-05-12T02:06:51.816Z,1.50
2023-05-12T02:07:51.730Z,1.50
2023-05-12T02:08:51.769Z,1.70
2023-05-12T02:09:51.760Z,1.50
2023-05-12T02:10:51.781Z,1.70
2023-05-12T02:11:51.891Z,1.60
2023-05-12T02:12:51.811Z,1.60
2023-05-12T02:13:51.813Z,1.50
2023-05-12T02:14:51.830Z,1.60
2023-05-12T02:15:51.909Z,1.60
2023-05-12T02:16:51.918Z,1.50
2023-05-12T02:17:52.008Z,1.60
2023-05-12T02:18:51.935Z,1.50
2023-05-12T02:19:51.908Z,1.40
2023-05-12T02:20:51.921Z,1.50
2023-05-12T02:21:51.940Z,1.50
2023-05-12T02:22:51.951Z,1.50
2023-05-12T02:23:52.066Z,1.50
2023-05-12T02:24:52.004Z,1.50
2023-05-12T02:25:51.994Z,1.50
2023-05-12T02:26:52.004Z,1.60
2023-05-12T02:27:52.026Z,1.40
2023-05-12T02:28:52.034Z,1.50
2023-05-12T02:29:52.143Z,1.70
2023-05-12T02:30:52.063Z,1.60
2023-05-12T02:31:52.133Z,1.50
2023-05-12T02:32:52.165Z,1.60
2023-05-12T02:33:52.109Z,1.60
2023-05-12T02:34:52.114Z,1.40
2023-05-12T02:35:52.264Z,1.50
2023-05-12T02:36:52.151Z,1.60
2023-05-12T02:37:52.155Z,1.40
2023-05-12T02:38:52.186Z,1.70
2023-05-12T02:39:52.182Z,1.70
2023-05-12T02:40:52.348Z,1.40
2023-05-12T02:41:52.212Z,1.60
2023-05-12T02:42:52.236Z,1.60
2023-05-12T02:43:52.248Z,1.60
2023-05-12T02:44:52.267Z,1.50
2023-05-12T02:45:52.296Z,1.40
2023-05-12T02:46:52.384Z,1.50
2023-05-12T02:47:52.383Z,1.50
2023-05-12T02:48:52.315Z,1.60
2023-05-12T02:49:52.333Z,1.50
2023-05-12T02:50:52.348Z,1.50
2023-05-12T02:51:52.468Z,1.50
2023-05-12T02:52:52.370Z,1.50
2023-05-12T02:53:52.387Z,1.50
2023-05-12T02:54:52.408Z,1.30
2023-05-12T02:55:52.427Z,1.70
2023-05-12T02:56:52.472Z,1.60
2023-05-12T02:57:52.548Z,1.60
2023-05-12T02:58:52.465Z,1.50
2023-05-12T02:59:52.473Z,1.40
2023-05-12T03:01:00.080Z,1.60
2023-05-12T03:01:52.527Z,1.60
2023-05-12T03:02:52.585Z,1.60
2023-05-12T03:03:52.668Z,1.60
2023-05-12T03:04:52.547Z,1.60
2023-05-12T03:05:52.565Z,1.40
2023-05-12T03:06:52.587Z,1.60
2023-05-12T03:07:52.586Z,1.60
2023-05-12T03:08:52.712Z,1.60
2023-05-12T03:09:52.623Z,1.60
2023-05-12T03:10:52.637Z,1.60
2023-05-12T03:11:52.659Z,1.60
2023-05-12T03:12:52.688Z,1.60
2023-05-12T03:13:52.674Z,1.40
2023-05-12T03:14:52.784Z,1.60
2023-05-12T03:15:52.705Z,1.70
2023-05-12T03:16:53.139Z,1.70
2023-05-12T03:17:52.816Z,1.70
2023-05-12T03:18:52.786Z,1.50
2023-05-12T03:19:52.758Z,1.50
2023-05-12T03:20:52.876Z,1.50
2023-05-12T03:21:52.792Z,1.60
2023-05-12T03:22:52.803Z,1.70
2023-05-12T03:23:52.819Z,1.60
2023-05-12T03:24:52.828Z,1.60
2023-05-12T03:25:52.852Z,1.60
2023-05-12T03:26:52.959Z,1.40
2023-05-12T03:27:52.866Z,1.50
2023-05-12T03:28:52.928Z,1.80
2023-05-12T03:29:52.899Z,1.60
2023-05-12T03:30:52.913Z,1.50
2023-05-12T03:31:53.041Z,1.60
2023-05-12T03:32:52.955Z,1.60
2023-05-12T03:33:52.955Z,1.50
2023-05-12T03:34:52.971Z,1.60
2023-05-12T03:35:52.976Z,1.80
2023-05-12T03:36:53.098Z,1.60
2023-05-12T03:37:53.014Z,1.60
2023-05-12T03:38:53.023Z,1.80
2023-05-12T03:39:53.033Z,1.70
2023-05-12T03:40:53.052Z,1.60
2023-05-12T03:41:53.065Z,1.70
2023-05-12T03:42:53.176Z,1.70
2023-05-12T03:43:53.099Z,1.70
2023-05-12T03:44:53.156Z,1.70
2023-05-12T03:45:53.134Z,1.70
2023-05-12T03:46:53.239Z,1.80
2023-05-12T03:47:53.312Z,1.70
2023-05-12T03:48:53.168Z,1.70
2023-05-12T03:49:53.182Z,1.80
2023-05-12T03:50:53.188Z,1.80
2023-05-12T03:51:53.201Z,1.70
2023-05-12T03:52:53.315Z,1.80
2023-05-12T03:53:53.240Z,1.90
2023-05-12T03:54:53.256Z,1.70
2023-05-12T03:55:53.269Z,1.80
2023-05-12T03:56:53.279Z,1.70
2023-05-12T03:57:53.287Z,1.80
2023-05-12T03:58:53.407Z,1.80
2023-05-12T03:59:53.318Z,1.70
2023-05-12T04:00:53.353Z,1.90
2023-05-12T04:01:53.497Z,1.70
2023-05-12T04:02:53.490Z,1.70
2023-05-12T04:03:53.580Z,1.60
2023-05-12T04:04:53.487Z,1.80
2023-05-12T04:05:53.406Z,2.00
2023-05-12T04:06:53.421Z,1.80
2023-05-12T04:07:53.434Z,1.70
2023-05-12T04:08:53.470Z,1.80
2023-05-12T04:09:53.462Z,2.00
2023-05-12T04:10:53.568Z,1.90
2023-05-12T04:11:53.891Z,1.70
2023-05-12T04:12:53.500Z,1.70
2023-05-12T04:13:53.519Z,2.10
2023-05-12T04:14:53.536Z,2.00
2023-05-12T04:15:53.548Z,1.80
2023-05-12T04:16:53.790Z,1.80
2023-05-12T04:17:53.687Z,1.90
2023-05-12T04:18:53.671Z,1.80
2023-05-12T04:19:53.669Z,1.80
2023-05-12T04:20:53.610Z,1.90
2023-05-12T04:21:53.646Z,1.90
2023-05-12T04:22:53.738Z,2.00
2023-05-12T04:23:53.654Z,1.90
2023-05-12T04:24:53.673Z,2.00
2023-05-12T04:25:53.684Z,2.00
2023-05-12T04:26:53.709Z,2.00
2023-05-12T04:27:53.707Z,2.10
2023-05-12T04:28:53.937Z,1.80
2023-05-12T04:29:53.742Z,2.10
2023-05-12T04:30:53.755Z,1.80
2023-05-12T04:31:53.802Z,1.90
2023-05-12T04:32:53.858Z,1.90
2023-05-12T04:33:53.800Z,1.70
2023-05-12T04:34:53.956Z,1.90
2023-05-12T04:35:53.829Z,1.80
2023-05-12T04:36:53.840Z,1.90
2023-05-12T04:37:53.849Z,1.90
2023-05-12T04:38:53.864Z,1.70
2023-05-12T04:39:53.883Z,1.90
2023-05-12T04:40:53.991Z,1.90
2023-05-12T04:41:53.903Z,1.90
2023-05-12T04:42:53.926Z,2.10
2023-05-12T04:44:53.949Z,1.90
2023-05-12T04:45:53.994Z,1.90
2023-05-12T04:46:54.077Z,1.90
2023-05-12T04:47:54.008Z,2.00
2023-05-12T04:48:54.042Z,1.90
2023-05-12T04:49:54.024Z,2.10
2023-05-12T04:50:54.039Z,1.90
2023-05-12T04:51:54.162Z,1.90
2023-05-12T04:52:54.062Z,1.90
2023-05-12T04:53:54.084Z,1.80
2023-05-12T04:54:54.092Z,1.90
2023-05-12T04:55:54.109Z,1.80
2023-05-12T04:56:54.119Z,1.80
2023-05-12T04:57:54.247Z,2.10
2023-05-12T04:58:54.145Z,2.10
2023-05-12T04:59:54.181Z,1.90
2023-05-12T05:00:54.238Z,2.00
2023-05-12T05:01:54.389Z,1.90
2023-05-12T05:02:54.361Z,1.80
2023-05-12T05:03:54.399Z,2.10
2023-05-12T05:04:54.277Z,1.90
2023-05-12T05:05:54.249Z,1.90
2023-05-12T05:06:54.262Z,1.90
2023-05-12T05:07:54.274Z,1.90
2023-05-12T05:08:54.282Z,1.90
2023-05-12T05:09:54.395Z,1.90
2023-05-12T05:10:54.314Z,2.10
2023-05-12T05:11:54.334Z,1.90
2023-05-12T05:12:54.336Z,2.10
2023-05-12T05:13:54.359Z,2.10
2023-05-12T05:14:54.381Z,1.90
2023-05-12T05:15:54.593Z,2.00
2023-05-12T05:16:54.394Z,2.10
2023-05-12T05:17:54.478Z,2.00
2023-05-12T05:18:54.471Z,2.00
2023-05-12T05:19:59.069Z,2.10
2023-05-12T05:20:58.554Z,2.10
2023-05-12T05:21:54.571Z,2.00
2023-05-12T05:22:54.485Z,2.10
2023-05-12T05:23:54.501Z,2.20
2023-05-12T05:24:54.509Z,1.90
2023-05-12T05:25:54.537Z,2.10
2023-05-12T05:26:54.639Z,2.10
2023-05-12T05:27:54.550Z,2.20
2023-05-12T05:28:54.574Z,2.10
2023-05-12T05:29:54.593Z,2.00
2023-05-12T05:30:54.645Z,2.10
2023-05-12T05:31:54.674Z,2.00
2023-05-12T05:32:54.761Z,2.20
2023-05-12T05:33:54.710Z,2.00
2023-05-12T05:34:54.652Z,2.20
2023-05-12T05:35:54.655Z,2.20
2023-05-12T05:36:54.700Z,2.30
2023-05-12T05:37:54.682Z,2.20
2023-05-12T05:38:54.799Z,2.10
2023-05-12T05:39:54.710Z,1.90
2023-05-12T05:40:54.889Z,1.90
2023-05-12T05:41:54.779Z,2.00
2023-05-12T05:42:54.760Z,2.20
2023-05-12T05:43:54.767Z,2.00
2023-05-12T05:44:54.886Z,2.20
2023-05-12T05:45:54.794Z,2.20
2023-05-12T05:46:54.854Z,2.10
2023-05-12T05:47:54.858Z,2.20
2023-05-12T05:48:54.870Z,2.00
2023-05-12T05:49:54.864Z,2.20
2023-05-12T05:50:54.984Z,2.10
2023-05-12T05:51:54.879Z,2.10
2023-05-12T05:52:54.924Z,2.00
2023-05-12T05:53:54.903Z,2.10
2023-05-12T05:54:54.925Z,2.10
2023-05-12T05:55:55.046Z,2.30
2023-05-12T05:56:54.957Z,2.10
2023-05-12T05:57:54.960Z,2.10
2023-05-12T05:58:55.003Z,2.20
2023-05-12T05:59:54.996Z,2.10
2023-05-12T06:00:55.009Z,2.10
2023-05-12T06:01:55.171Z,2.00
2023-05-12T06:02:55.113Z,2.10
2023-05-12T06:03:55.099Z,2.20
2023-05-12T06:04:55.063Z,2.00
2023-05-12T06:05:55.074Z,2.00
2023-05-12T06:06:55.091Z,2.20
2023-05-12T06:07:55.214Z,2.20
2023-05-12T06:08:55.162Z,2.30
2023-05-12T06:09:55.133Z,2.00
2023-05-12T06:10:55.140Z,2.30
2023-05-12T06:11:55.154Z,2.00
2023-05-12T06:12:55.265Z,2.30
2023-05-12T06:13:55.196Z,2.10
2023-05-12T06:14:55.194Z,2.20
2023-05-12T06:15:55.217Z,2.40
2023-05-12T06:16:55.280Z,2.10
2023-05-12T06:17:55.443Z,2.00
2023-05-12T06:18:55.322Z,2.30
2023-05-12T06:19:55.268Z,2.20
2023-05-12T06:20:55.289Z,2.10
2023-05-12T06:21:55.293Z,2.00
2023-05-12T06:22:55.303Z,2.30
2023-05-12T06:23:55.431Z,2.10
2023-05-12T06:24:55.371Z,2.10
2023-05-12T06:25:55.363Z,2.10
2023-05-12T06:26:55.359Z,2.10
2023-05-12T06:27:55.373Z,2.20
2023-05-12T06:28:55.487Z,2.10
2023-05-12T06:29:55.408Z,2.10
2023-05-12T06:30:55.420Z,2.10
2023-05-12T06:31:55.459Z,2.20
2023-05-12T06:32:55.479Z,2.10
2023-05-12T06:33:55.460Z,2.20
2023-05-12T06:34:55.572Z,2.10
2023-05-12T06:35:55.502Z,2.00
2023-05-12T06:36:55.511Z,2.20
2023-05-12T06:37:55.516Z,2.30
2023-05-12T06:38:55.537Z,2.10
2023-05-12T06:39:55.545Z,2.40
2023-05-12T06:40:55.688Z,2.10
2023-05-12T06:41:55.577Z,2.20
2023-05-12T06:42:55.586Z,2.30
2023-05-12T06:43:55.600Z,2.30
2023-05-12T06:44:55.619Z,2.40
2023-05-12T06:45:55.741Z,2.30
2023-05-12T06:46:55.657Z,2.30
2023-05-12T06:47:55.677Z,2.10
2023-05-12T06:48:55.689Z,2.30
2023-05-12T06:49:55.683Z,2.20
2023-05-12T06:50:55.703Z,2.30
2023-05-12T06:51:55.820Z,2.20
2023-05-12T06:52:55.722Z,2.30
2023-05-12T06:53:55.745Z,2.20
2023-05-12T06:54:55.751Z,2.40
2023-05-12T06:55:55.774Z,2.20
2023-05-12T06:56:56.140Z,2.40
2023-05-12T06:57:56.053Z,2.20
2023-05-12T06:58:55.807Z,2.30
2023-05-12T06:59:55.823Z,2.30
2023-05-12T07:00:55.839Z,2.20
2023-05-12T07:01:56.003Z,2.40
2023-05-12T07:02:55.916Z,2.40
2023-05-12T07:03:55.939Z,2.30
2023-05-12T07:04:55.887Z,2.20
2023-05-12T07:05:55.985Z,2.10
2023-05-12T07:06:56.014Z,2.30
2023-05-12T07:07:55.934Z,2.30
2023-05-12T07:08:55.949Z,2.30
2023-05-12T07:09:55.964Z,2.30
2023-05-12T07:10:55.971Z,2.40
2023-05-12T07:11:56.005Z,2.30
2023-05-12T07:12:56.208Z,2.50
2023-05-12T07:13:56.017Z,2.30
2023-05-12T07:14:56.033Z,2.40
2023-05-12T07:15:56.092Z,2.30
2023-05-12T07:16:56.054Z,2.40
2023-05-12T07:17:56.217Z,2.30
2023-05-12T07:18:56.250Z,2.50
2023-05-12T07:19:56.093Z,2.30
2023-05-12T07:20:56.112Z,2.40
2023-05-12T07:21:56.124Z,2.50
2023-05-12T07:22:56.145Z,2.50
2023-05-12T07:23:56.155Z,2.50
2023-05-12T07:24:56.311Z,2.30
2023-05-12T07:25:56.173Z,2.30
2023-05-12T07:26:56.195Z,2.30
2023-05-12T07:27:56.201Z,2.50
2023-05-12T07:28:56.255Z,2.20
2023-05-12T07:29:56.331Z,2.40
2023-05-12T07:30:56.265Z,2.30
2023-05-12T07:31:56.252Z,2.40
2023-05-12T07:32:56.288Z,2.30
2023-05-12T07:33:56.289Z,2.20
2023-05-12T07:34:56.306Z,2.20
2023-05-12T07:35:56.422Z,2.40
2023-05-12T07:36:56.327Z,2.30
2023-05-12T07:37:56.349Z,2.50
2023-05-12T07:38:56.363Z,2.40
2023-05-12T07:39:56.377Z,2.20
2023-05-12T07:40:56.488Z,2.30
2023-05-12T07:41:56.398Z,2.20
2023-05-12T07:42:56.409Z,2.40
2023-05-12T07:43:56.428Z,2.40
2023-05-12T07:44:56.461Z,2.20
2023-05-12T07:45:56.554Z,2.10
2023-05-12T07:46:56.502Z,2.50
2023-05-12T07:47:56.495Z,2.30
2023-05-12T07:48:56.492Z,2.50
2023-05-12T07:49:56.515Z,2.30
2023-05-12T07:50:56.531Z,2.20
2023-05-12T07:51:56.639Z,2.30
2023-05-12T07:52:56.549Z,2.30
2023-05-12T07:53:56.568Z,2.20
2023-05-12T07:54:56.593Z,2.30
2023-05-12T07:55:56.594Z,2.20
2023-05-12T07:56:56.803Z,2.20
2023-05-12T07:57:56.715Z,2.00
2023-05-12T07:58:56.638Z,2.40
2023-05-12T07:59:56.653Z,2.10
2023-05-12T08:00:56.684Z,2.20
2023-05-12T08:01:56.688Z,2.00
2023-05-12T08:02:57.043Z,2.00
2023-05-12T08:03:56.772Z,2.00
2023-05-12T08:04:56.726Z,2.00
2023-05-12T08:05:56.733Z,2.10
2023-05-12T08:06:56.748Z,2.20
2023-05-12T08:07:56.858Z,2.00
2023-05-12T08:08:56.774Z,2.00
2023-05-12T08:09:56.787Z,2.10
2023-05-12T08:10:56.798Z,2.20
2023-05-12T08:11:56.813Z,2.00
2023-05-12T08:12:56.917Z,1.90
2023-05-12T08:13:56.853Z,1.90
2023-05-12T08:14:56.875Z,2.00
2023-05-12T08:15:56.860Z,1.90
2023-05-12T08:16:57.013Z,2.00
2023-05-12T08:17:57.024Z,2.00
2023-05-12T08:18:56.934Z,1.90
2023-05-12T08:19:56.918Z,1.80
2023-05-12T08:20:56.928Z,2.00
2023-05-12T08:21:56.944Z,1.90
2023-05-12T08:22:56.967Z,2.00
2023-05-12T08:23:57.074Z,1.80
2023-05-12T08:24:56.984Z,1.80
2023-05-12T08:25:56.996Z,1.90
2023-05-12T08:26:57.033Z,1.80
2023-05-12T08:27:57.031Z,1.60
2023-05-12T08:28:57.054Z,1.70
2023-05-12T08:29:57.225Z,1.80
2023-05-12T08:30:57.136Z,1.90
2023-05-12T08:31:57.098Z,1.70
2023-05-12T08:32:57.230Z,1.80
2023-05-12T08:34:09.096Z,1.70
2023-05-12T08:34:57.125Z,1.70
2023-05-12T08:35:57.232Z,1.80
2023-05-12T08:36:57.145Z,1.90
2023-05-12T08:37:57.167Z,1.80
2023-05-12T08:38:57.193Z,1.70
2023-05-12T08:39:57.194Z,1.60
2023-05-12T08:40:57.308Z,1.70
2023-05-12T08:41:57.214Z,2.00
2023-05-12T08:42:59.271Z,1.80
2023-05-12T08:43:57.241Z,1.70
2023-05-12T08:44:57.257Z,1.80
2023-05-12T08:45:57.304Z,1.80
2023-05-12T08:46:57.497Z,1.80
2023-05-12T08:47:57.326Z,1.80
2023-05-12T08:48:57.377Z,1.70
2023-05-12T08:49:57.349Z,1.80
2023-05-12T08:50:57.344Z,1.80
2023-05-12T08:51:58.489Z,1.90
2023-05-12T08:52:57.395Z,1.60
2023-05-12T08:53:57.386Z,1.70
2023-05-12T08:54:57.400Z,1.60
2023-05-12T08:57:09.549Z,1.70
2023-05-12T08:57:57.756Z,1.80
2023-05-12T08:58:57.445Z,1.70
2023-05-12T08:59:57.457Z,1.70
2023-05-12T09:00:57.539Z,1.70
2023-05-12T09:01:57.567Z,1.70
2023-05-12T09:02:57.649Z,1.90
2023-05-12T09:03:57.557Z,1.70
2023-05-12T09:04:57.578Z,1.60
2023-05-12T09:05:57.542Z,1.70
2023-05-12T09:06:57.555Z,1.60
2023-05-12T09:07:57.576Z,1.50
2023-05-12T09:08:57.681Z,1.90
2023-05-12T09:09:57.596Z,1.70
2023-05-12T09:10:57.626Z,1.70
2023-05-12T09:11:57.626Z,1.60
2023-05-12T09:12:57.643Z,1.60
2023-05-12T09:13:57.753Z,1.50
2023-05-12T09:14:57.671Z,1.70
2023-05-12T09:15:57.703Z,1.70
2023-05-12T09:16:57.697Z,1.60
2023-05-12T09:17:57.732Z,1.50
2023-05-12T09:18:57.730Z,1.50
2023-05-12T09:19:57.831Z,1.60
2023-05-12T09:20:57.789Z,1.50
2023-05-12T09:21:57.764Z,1.70
2023-05-12T09:22:57.780Z,1.50
2023-05-12T09:23:57.786Z,1.50
2023-05-12T09:24:57.811Z,1.50
2023-05-12T09:25:57.916Z,1.70
2023-05-12T09:26:57.838Z,1.40
2023-05-12T09:27:57.847Z,1.50
2023-05-12T09:28:57.854Z,1.50
2023-05-12T09:29:59.644Z,1.50
2023-05-12T09:30:57.890Z,1.50
2023-05-12T09:31:58.058Z,1.40
2023-05-12T09:32:57.937Z,1.60
2023-05-12T09:33:57.924Z,1.40
2023-05-12T09:34:57.937Z,1.30
2023-05-12T09:35:57.950Z,1.30
2023-05-12T09:36:58.066Z,1.50
2023-05-12T09:37:58.086Z,1.40
2023-05-12T09:38:57.993Z,1.40
2023-05-12T09:39:58.004Z,1.40
2023-05-12T09:40:58.020Z,1.30
2023-05-12T09:41:58.039Z,1.30
2023-05-12T09:42:58.053Z,1.40
2023-05-12T09:43:58.169Z,1.50
2023-05-12T09:44:58.073Z,1.40
2023-05-12T09:45:58.114Z,1.40
2023-05-12T09:46:58.101Z,1.40
2023-05-12T09:47:58.209Z,1.40
2023-05-12T09:48:58.133Z,1.30
2023-05-12T09:49:58.245Z,1.50
2023-05-12T09:50:58.170Z,1.30
2023-05-12T09:51:58.178Z,1.30
2023-05-12T09:52:58.888Z,1.30
2023-05-12T09:53:58.203Z,1.40
2023-05-12T09:54:58.308Z,1.20
2023-05-12T09:55:58.235Z,1.20
2023-05-12T09:56:58.243Z,1.30
2023-05-12T09:57:58.247Z,1.30
2023-05-12T09:58:58.288Z,1.40
2023-05-12T09:59:58.280Z,1.20
2023-05-12T10:01:13.519Z,1.30
2023-05-12T10:01:58.298Z,1.40
2023-05-12T10:02:58.371Z,1.10
2023-05-12T10:03:58.334Z,1.30
2023-05-12T10:04:58.339Z,1.30
2023-05-12T10:05:58.464Z,1.40
2023-05-12T10:06:58.398Z,1.30
2023-05-12T10:07:58.383Z,1.30
2023-05-12T10:08:58.433Z,1.30
2023-05-12T10:09:58.412Z,1.40
2023-05-12T10:10:58.420Z,1.30
2023-05-12T10:11:58.549Z,1.40
2023-05-12T10:12:58.446Z,1.10
2023-05-12T10:13:58.460Z,1.20
2023-05-12T10:14:58.479Z,1.40
2023-05-12T10:15:58.492Z,1.20
2023-05-12T10:16:58.546Z,1.30
2023-05-12T10:17:58.667Z,1.30
2023-05-12T10:18:58.600Z,1.30
2023-05-12T10:19:58.549Z,1.30
2023-05-12T10:20:58.553Z,1.20
2023-05-12T10:21:58.565Z,1.30
2023-05-12T10:22:58.588Z,1.30
2023-05-12T10:23:58.701Z,1.20
2023-05-12T10:24:58.628Z,1.10
2023-05-12T10:25:58.649Z,1.20
2023-05-12T10:26:58.660Z,1.20
2023-05-12T10:27:58.649Z,1.30
2023-05-12T10:28:58.669Z,1.20
2023-05-12T10:29:58.783Z,1.30
2023-05-12T10:30:58.752Z,1.10
2023-05-12T10:31:58.717Z,1.40
2023-05-12T10:32:58.762Z,1.00
2023-05-12T10:33:58.737Z,1.30
2023-05-12T10:34:58.851Z,1.30
2023-05-12T10:35:58.764Z,1.20
2023-05-12T10:36:58.781Z,1.20
2023-05-12T10:37:58.798Z,1.20
2023-05-12T10:38:58.808Z,1.20
2023-05-12T10:39:58.820Z,1.10
2023-05-12T10:40:58.969Z,1.30
2023-05-12T10:41:58.838Z,1.10
2023-05-12T10:42:58.859Z,0.90
2023-05-12T10:43:58.874Z,1.10
2023-05-12T10:44:58.890Z,1.20
2023-05-12T10:45:58.952Z,1.20
2023-05-12T10:46:59.009Z,1.20
2023-05-12T10:47:58.938Z,1.20
2023-05-12T10:48:58.954Z,1.30
2023-05-12T10:49:58.958Z,1.00
2023-05-12T10:50:58.973Z,0.90
2023-05-12T10:51:59.079Z,1.10
2023-05-12T10:52:58.986Z,1.10
2023-05-12T10:53:58.999Z,1.10
2023-05-12T10:54:59.032Z,1.20
2023-05-12T10:55:59.244Z,1.10
2023-05-12T10:56:59.867Z,0.90
2023-05-12T10:57:59.311Z,1.00
2023-05-12T10:58:59.242Z,1.00
2023-05-12T10:59:59.760Z,1.00
2023-05-12T11:00:59.602Z,1.10
2023-05-12T11:01:59.554Z,1.10
2023-05-12T11:03:02.714Z,1.10
2023-05-12T11:03:59.277Z,1.20
2023-05-12T11:04:59.371Z,1.00
2023-05-12T11:05:59.291Z,0.90
2023-05-12T11:06:59.440Z,1.10
2023-05-12T11:07:59.298Z,1.10
2023-05-12T11:09:00.746Z,1.00
2023-05-12T11:10:01.279Z,1.10
2023-05-12T11:10:59.408Z,1.00
2023-05-12T11:12:00.147Z,0.90
2023-05-12T11:12:59.322Z,1.10
2023-05-12T11:13:59.267Z,1.00
2023-05-12T11:15:32.597Z,1.10
2023-05-12T11:15:59.325Z,1.10
2023-05-12T11:16:59.309Z,1.10
2023-05-12T11:17:59.363Z,0.90
2023-05-12T11:18:59.358Z,1.00
2023-05-12T11:19:59.365Z,1.10
2023-05-12T11:20:59.468Z,1.00
2023-05-12T11:21:59.382Z,1.00
2023-05-12T11:22:59.395Z,0.90
2023-05-12T11:23:59.410Z,1.10
2023-05-12T11:24:59.431Z,0.80
2023-05-12T11:25:59.534Z,1.00
2023-05-12T11:26:59.548Z,1.00
2023-05-12T11:27:59.456Z,1.10
2023-05-12T11:28:59.528Z,1.00
2023-05-12T11:29:59.549Z,1.00
2023-05-12T11:30:59.497Z,0.90
2023-05-12T11:31:59.643Z,1.10
2023-05-12T11:32:59.703Z,1.10
2023-05-12T11:34:10.791Z,1.00
2023-05-12T11:34:59.557Z,1.00
2023-05-12T11:35:59.567Z,0.90
2023-05-12T11:36:59.590Z,1.10
2023-05-12T11:37:59.699Z,1.00
2023-05-12T11:38:59.599Z,1.00
2023-05-12T11:39:59.614Z,1.00
2023-05-12T11:40:59.628Z,1.00
2023-05-12T11:42:11.594Z,1.10
2023-05-12T11:42:59.662Z,1.00
2023-05-12T11:43:59.801Z,0.90
2023-05-12T11:44:59.702Z,1.00
2023-05-12T11:45:59.743Z,0.90
2023-05-12T11:46:59.709Z,1.00
2023-05-12T11:47:59.770Z,1.10
2023-05-12T11:48:59.742Z,1.00
2023-05-12T11:49:59.863Z,1.00
2023-05-12T11:50:59.776Z,1.00
2023-05-12T11:51:59.781Z,1.10
2023-05-12T11:52:59.799Z,0.90
2023-05-12T11:53:59.803Z,1.00
2023-05-12T11:54:59.932Z,1.00
2023-05-12T11:55:59.837Z,0.90
2023-05-12T11:56:59.848Z,0.90
2023-05-12T11:57:59.866Z,0.90
2023-05-12T11:58:59.872Z,0.90
2023-05-12T11:59:59.907Z,0.80
2023-05-12T12:01:00.065Z,1.00
2023-05-12T12:01:59.957Z,0.90
2023-05-12T12:03:00.081Z,1.10
2023-05-12T12:04:00.018Z,0.90
2023-05-12T12:04:59.961Z,0.90
2023-05-12T12:05:59.971Z,1.10
2023-05-12T12:07:00.102Z,0.90
2023-05-12T12:08:00.002Z,1.10
2023-05-12T12:09:00.003Z,1.00
2023-05-12T12:10:00.053Z,1.00
2023-05-12T12:11:02.759Z,1.00
2023-05-12T12:12:00.048Z,0.90
2023-05-12T12:13:00.175Z,1.00
2023-05-12T12:14:00.114Z,1.10
2023-05-12T12:15:00.197Z,1.10
2023-05-12T12:16:00.155Z,1.10
2023-05-12T12:17:00.267Z,1.10
2023-05-12T12:18:00.216Z,1.10
2023-05-12T12:19:00.286Z,0.90
2023-05-12T12:20:00.248Z,1.00
2023-05-12T12:21:00.166Z,1.10
2023-05-12T12:22:00.190Z,1.10
2023-05-12T12:23:00.197Z,1.20
2023-05-12T12:24:00.308Z,1.10
2023-05-12T12:25:00.230Z,1.10
2023-05-12T12:26:00.234Z,1.10
2023-05-12T12:27:00.259Z,1.00
2023-05-12T12:28:00.259Z,1.20
2023-05-12T12:29:00.270Z,1.10
2023-05-12T12:30:00.429Z,1.20
2023-05-12T12:31:00.333Z,1.10
2023-05-12T12:32:00.320Z,1.00
2023-05-12T12:33:00.502Z,1.10
2023-05-12T12:34:00.348Z,1.20
2023-05-12T12:35:00.357Z,1.10
2023-05-12T12:36:00.478Z,1.20
2023-05-12T12:37:00.401Z,1.00
2023-05-12T12:38:00.426Z,1.00
2023-05-12T12:39:00.413Z,1.10
2023-05-12T12:40:00.419Z,1.00
2023-05-12T12:41:00.744Z,1.10
2023-05-12T12:42:00.470Z,1.30
2023-05-12T12:43:00.465Z,1.10
2023-05-12T12:44:00.472Z,1.10
2023-05-12T12:45:00.503Z,1.10
2023-05-12T12:46:00.610Z,1.10
2023-05-12T12:47:00.566Z,1.00
2023-05-12T12:48:00.557Z,1.20
2023-05-12T12:49:00.590Z,1.10
2023-05-12T12:50:00.561Z,1.10
2023-05-12T12:51:00.689Z,1.20
2023-05-12T12:52:00.592Z,1.10
2023-05-12T12:53:00.590Z,1.10
2023-05-12T12:54:00.606Z,1.10
2023-05-12T12:55:00.622Z,1.20
2023-05-12T12:56:00.757Z,1.10
2023-05-12T12:57:00.650Z,1.10
2023-05-12T12:58:00.663Z,1.30
2023-05-12T12:59:00.884Z,1.10
2023-05-12T13:00:00.708Z,1.10
2023-05-12T13:01:00.721Z,1.30
2023-05-12T13:02:00.838Z,1.20
2023-05-12T13:03:01.271Z,1.30
2023-05-12T13:04:00.738Z,1.10
2023-05-12T13:05:00.846Z,1.20
2023-05-12T13:06:00.768Z,1.20
2023-05-12T13:07:00.783Z,1.30
2023-05-12T13:08:00.900Z,1.00
2023-05-12T13:09:00.807Z,1.20
2023-05-12T13:10:01.020Z,1.30
2023-05-12T13:11:00.844Z,1.20
2023-05-12T13:12:00.860Z,1.20
2023-05-12T13:13:00.980Z,1.30
2023-05-12T13:14:00.882Z,1.40
2023-05-12T13:15:00.946Z,1.30
2023-05-12T13:16:00.916Z,1.30
2023-05-12T13:17:01.043Z,1.30
2023-05-12T13:18:00.955Z,1.20
2023-05-12T13:19:01.072Z,1.20
2023-05-12T13:20:00.951Z,1.40
2023-05-12T13:21:01.057Z,1.20